createdAt,value
2023-02-02T00:02:20.407Z,95672.75
2023-02-02T00:04:48.468Z,95671.94
2023-02-02T00:07:16.416Z,95647.63
2023-02-02T00:09:46.351Z,95651.53
2023-02-02T00:12:14.366Z,95671.09
2023-02-02T00:14:42.237Z,95677.13
2023-02-02T00:17:11.957Z,95660.19
2023-02-02T00:19:39.896Z,95647.47
2023-02-02T00:22:07.981Z,95639.97
2023-02-02T00:24:35.830Z,95609.28
2023-02-02T00:27:05.444Z,95594.28
2023-02-02T00:29:33.626Z,95590.22
2023-02-02T00:32:01.745Z,95569.84
2023-02-02T00:34:29.687Z,95563.97
2023-02-02T00:36:57.634Z,95524.88
2023-02-02T00:39:27.195Z,95536.94
2023-02-02T00:41:55.465Z,95539.38
2023-02-02T00:44:42.477Z,95497.97
2023-02-02T00:47:10.704Z,95474.34
2023-02-02T00:49:39.184Z,95455.78
2023-02-02T00:52:10.282Z,95417.69
2023-02-02T00:54:38.237Z,95421.91
2023-02-02T00:57:08.910Z,95406.63
2023-02-02T00:59:40.966Z,95374.69
2023-02-02T01:02:10.375Z,95320.97
2023-02-02T01:04:38.829Z,95273.44
2023-02-02T01:07:07.508Z,95195.72
2023-02-02T01:09:35.476Z,95112.47
2023-02-02T01:12:03.317Z,95070.84
2023-02-02T01:14:31.132Z,95040.63
2023-02-02T01:17:00.382Z,94962.16
2023-02-02T01:19:28.334Z,94882.47
2023-02-02T01:21:56.163Z,94809.28
2023-02-02T01:24:24.145Z,94715.06
2023-02-02T01:26:52.078Z,94654.44
2023-02-02T01:29:20.189Z,94632.06
2023-02-02T01:31:49.735Z,94581.50
2023-02-02T01:34:21.245Z,94539.38
2023-02-02T01:36:49.124Z,94491.63
2023-02-02T01:39:17.456Z,94474.78
2023-02-02T01:41:45.348Z,94433.47
2023-02-02T01:44:50.441Z,94402.59
2023-02-02T01:47:19.473Z,94388.19
2023-02-02T01:49:49.242Z,94376.53
2023-02-02T01:52:20.920Z,94389.00
2023-02-02T01:54:52.140Z,94384.31
2023-02-02T01:57:26.503Z,94403.41
2023-02-02T01:59:58.016Z,94411.81
2023-02-02T02:02:28.766Z,94366.50
2023-02-02T02:04:58.445Z,94321.84
2023-02-02T02:07:26.739Z,94286.28
2023-02-02T02:09:54.900Z,94280.78
2023-02-02T02:12:23.062Z,94301.16
2023-02-02T02:15:10.399Z,94306.00
2023-02-02T02:17:47.602Z,94351.47
2023-02-02T02:21:07.758Z,94361.50
2023-02-02T02:24:44.708Z,94366.50
2023-02-02T02:27:49.364Z,94358.91
2023-02-02T02:30:50.432Z,94364.09
2023-02-02T02:33:27.329Z,94388.19
2023-02-02T02:36:03.721Z,94384.63
2023-02-02T02:38:39.179Z,94426.69
2023-02-02T02:41:12.850Z,94367.97
2023-02-02T02:43:44.835Z,94367.16
2023-02-02T02:46:13.496Z,94366.50
2023-02-02T02:48:45.658Z,94385.75
2023-02-02T02:51:43.195Z,94413.59
2023-02-02T02:54:12.612Z,94388.19
2023-02-02T02:56:55.931Z,94421.84
2023-02-02T02:59:35.767Z,94480.44
2023-02-02T03:02:22.047Z,94504.72
2023-02-02T03:05:02.593Z,94577.47
2023-02-02T03:07:34.831Z,94597.53
2023-02-02T03:10:06.451Z,94691.38
2023-02-02T03:12:35.239Z,94767.41
2023-02-02T03:15:06.991Z,94830.69
2023-02-02T03:17:34.863Z,94885.72
2023-02-02T03:20:04.293Z,94949.19
2023-02-02T03:22:32.537Z,94988.34
2023-02-02T03:25:00.513Z,95016.91
2023-02-02T03:27:28.809Z,95038.03
2023-02-02T03:29:56.939Z,95040.47
2023-02-02T03:32:24.916Z,95057.53
2023-02-02T03:34:52.953Z,95085.47
2023-02-02T03:37:23.560Z,95110.69
2023-02-02T03:39:53.629Z,95106.63
2023-02-02T03:42:21.865Z,95128.38
2023-02-02T03:44:49.836Z,95152.94
2023-02-02T03:47:17.737Z,95158.63
2023-02-02T03:49:45.785Z,95172.28
2023-02-02T03:52:13.663Z,95153.41
2023-02-02T03:54:43.002Z,95176.50
2023-02-02T03:57:10.898Z,95182.34
2023-02-02T03:59:39.036Z,95173.09
2023-02-02T04:02:06.993Z,95164.47
2023-02-02T04:04:35.020Z,95171.28
2023-02-02T04:07:03.145Z,95177.47
2023-02-02T04:09:31.147Z,95158.94
2023-02-02T04:12:00.561Z,95165.44
2023-02-02T04:14:28.345Z,95157.00
2023-02-02T04:16:56.272Z,95157.81
2023-02-02T04:19:24.153Z,95163.81
2023-02-02T04:21:52.068Z,95168.84
2023-02-02T04:24:19.818Z,95183.97
2023-02-02T04:26:47.859Z,95143.34
2023-02-02T04:29:17.684Z,95134.25
2023-02-02T04:31:45.680Z,95136.84
2023-02-02T04:34:13.648Z,95134.25
2023-02-02T04:36:42.089Z,95125.94
2023-02-02T04:39:12.294Z,95107.44
2023-02-02T04:41:40.219Z,95110.69
2023-02-02T04:44:15.538Z,95107.25
2023-02-02T04:46:45.316Z,95124.00
2023-02-02T04:49:13.502Z,95130.00
2023-02-02T04:51:42.229Z,95108.25
2023-02-02T04:54:10.195Z,95120.25
2023-02-02T04:56:38.230Z,95110.69
2023-02-02T04:59:06.270Z,95121.06
2023-02-02T05:01:34.223Z,95122.69
2023-02-02T05:04:03.523Z,95121.88
2023-02-02T05:06:31.414Z,95109.06
2023-02-02T05:08:59.979Z,95106.63
2023-02-02T05:11:28.266Z,95082.84
2023-02-02T05:13:56.758Z,95110.03
2023-02-02T05:16:28.477Z,95103.19
2023-02-02T05:18:59.502Z,95102.38
2023-02-02T05:21:29.289Z,95104.00
2023-02-02T05:23:57.245Z,95115.06
2023-02-02T05:26:28.530Z,95132.94
2023-02-02T05:28:57.430Z,95105.00
2023-02-02T05:31:25.457Z,95116.69
2023-02-02T05:33:53.743Z,95138.78
2023-02-02T05:36:21.691Z,95116.69
2023-02-02T05:38:51.192Z,95084.47
2023-02-02T05:41:19.215Z,95104.81
2023-02-02T05:43:47.380Z,95115.06
2023-02-02T05:46:15.334Z,95130.19
2023-02-02T05:48:43.427Z,95094.59
2023-02-02T05:51:17.289Z,95112.63
2023-02-02T05:53:46.063Z,95097.00
2023-02-02T05:56:16.240Z,95077.66
2023-02-02T05:58:47.392Z,95096.53
2023-02-02T06:01:15.553Z,95071.97
2023-02-02T06:03:43.715Z,95074.56
2023-02-02T06:06:12.184Z,95056.88
2023-02-02T06:08:40.170Z,95075.53
2023-02-02T06:11:17.564Z,95057.69
2023-02-02T06:13:48.751Z,95059.47
2023-02-02T06:16:16.852Z,95065.97
2023-02-02T06:18:47.232Z,95076.38
2023-02-02T06:21:15.681Z,95050.69
2023-02-02T06:23:45.865Z,95039.97
2023-02-02T06:26:15.325Z,95008.97
2023-02-02T06:28:43.702Z,94959.09
2023-02-02T06:31:13.475Z,94909.41
2023-02-02T06:33:41.430Z,94847.41
2023-02-02T06:36:09.295Z,94805.88
2023-02-02T06:38:37.292Z,94786.75
2023-02-02T06:41:06.895Z,94779.94
2023-02-02T06:43:38.690Z,94783.50
2023-02-02T06:46:06.538Z,94816.91
2023-02-02T06:48:34.320Z,94854.06
2023-02-02T06:51:02.392Z,94871.56
2023-02-02T06:53:30.414Z,94893.34
2023-02-02T06:56:00.472Z,94921.44
2023-02-02T06:58:29.136Z,94953.25
2023-02-02T07:01:04.221Z,94994.66
2023-02-02T07:03:32.266Z,95012.38
2023-02-02T07:06:00.112Z,95007.50
2023-02-02T07:08:28.049Z,95046.63
2023-02-02T07:11:14.673Z,95068.72
2023-02-02T07:13:43.594Z,95057.84
2023-02-02T07:16:14.018Z,95056.22
2023-02-02T07:18:44.009Z,95071.97
2023-02-02T07:21:18.637Z,95077.00
2023-02-02T07:23:46.870Z,95079.63
2023-02-02T07:26:15.578Z,95079.63
2023-02-02T07:28:43.590Z,95101.75
2023-02-02T07:31:18.481Z,95089.69
2023-02-02T07:33:47.678Z,95115.88
2023-02-02T07:36:17.288Z,95131.31
2023-02-02T07:38:46.146Z,95148.88
2023-02-02T07:41:14.490Z,95135.22
2023-02-02T07:43:42.729Z,95145.63
2023-02-02T07:46:14.344Z,95161.38
2023-02-02T07:48:43.743Z,95120.25
2023-02-02T07:51:14.119Z,95136.19
2023-02-02T07:53:44.958Z,95121.88
2023-02-02T07:56:14.461Z,95110.19
2023-02-02T07:58:43.413Z,95117.66
2023-02-02T08:01:13.040Z,95108.25
2023-02-02T08:03:44.047Z,95104.34
2023-02-02T08:06:15.569Z,95095.03
2023-02-02T08:08:43.715Z,95060.13
2023-02-02T08:11:14.145Z,95065.47
2023-02-02T08:13:43.313Z,95039.31
2023-02-02T08:16:12.471Z,95005.88
2023-02-02T08:18:40.596Z,95000.34
2023-02-02T08:21:11.006Z,95000.50
2023-02-02T08:23:40.334Z,94972.72
2023-02-02T08:26:10.854Z,94941.56
2023-02-02T08:28:39.274Z,94914.59
2023-02-02T08:31:09.309Z,94869.13
2023-02-02T08:33:38.568Z,94823.06
2023-02-02T08:36:13.171Z,94769.03
2023-02-02T08:38:41.620Z,94716.34
2023-02-02T08:41:12.343Z,94682.63
2023-02-02T08:43:40.596Z,94671.75
2023-02-02T08:46:10.701Z,94651.50
2023-02-02T08:48:38.839Z,94645.66
2023-02-02T08:51:08.266Z,94632.84
2023-02-02T08:53:37.602Z,94634.00
2023-02-02T08:56:07.490Z,94648.91
2023-02-02T08:58:35.796Z,94660.09
2023-02-02T09:01:07.782Z,94670.81
2023-02-02T09:03:38.989Z,94696.25
2023-02-02T09:06:08.126Z,94731.25
2023-02-02T09:08:37.854Z,94764.97
2023-02-02T09:11:07.460Z,94837.81
2023-02-02T09:13:35.586Z,94901.94
2023-02-02T09:16:05.295Z,94987.97
2023-02-02T09:18:33.580Z,95018.22
2023-02-02T09:21:03.061Z,95077.66
2023-02-02T09:23:31.714Z,95162.84
2023-02-02T09:26:10.497Z,95211.31
2023-02-02T09:28:39.405Z,95253.59
2023-02-02T09:31:08.062Z,95327.81
2023-02-02T09:33:36.824Z,95428.09
2023-02-02T09:36:06.683Z,95564.94
2023-02-02T09:38:34.844Z,95686.59
2023-02-02T09:41:25.680Z,95711.53
2023-02-02T09:44:03.433Z,95699.63
2023-02-02T09:46:42.910Z,95700.59
2023-02-02T09:49:13.675Z,95665.53
2023-02-02T09:51:45.759Z,95649.56
2023-02-02T09:54:19.719Z,95608.28
2023-02-02T09:56:55.909Z,95635.88
2023-02-02T09:59:28.245Z,95703.84
2023-02-02T10:02:02.905Z,95699.63
2023-02-02T10:04:36.015Z,95729.97
2023-02-02T10:07:09.859Z,95722.59
2023-02-02T10:09:43.616Z,95754.47
2023-02-02T10:12:26.131Z,95735.47
2023-02-02T10:14:59.318Z,95687.06
2023-02-02T10:17:39.953Z,95578.63
2023-02-02T10:20:22.269Z,95610.22
2023-02-02T10:22:51.791Z,95868.88
2023-02-02T10:25:23.738Z,96010.34
2023-02-02T10:27:59.614Z,96071.47
2023-02-02T10:30:38.810Z,96113.16
2023-02-02T10:33:11.391Z,96128.22
2023-02-02T10:35:45.335Z,96197.91
2023-02-02T10:38:23.073Z,96206.41
2023-02-02T10:41:00.713Z,96092.91
2023-02-02T10:43:51.067Z,96075.88
2023-02-02T10:46:24.904Z,96066.53
2023-02-02T10:49:15.818Z,96049.56
2023-02-02T10:51:50.337Z,96123.31
2023-02-02T10:54:54.864Z,96040.91
2023-02-02T10:57:35.325Z,96058.88
2023-02-02T11:00:16.578Z,96080.13
2023-02-02T11:02:44.957Z,96118.09
2023-02-02T11:05:36.348Z,96108.25
2023-02-02T11:08:12.194Z,96093.84
2023-02-02T11:10:40.240Z,95997.91
2023-02-02T11:13:13.570Z,95913.13
2023-02-02T11:15:42.926Z,95871.66
2023-02-02T11:18:29.455Z,95876.72
2023-02-02T11:20:58.227Z,95982.03
2023-02-02T11:23:28.610Z,95955.41
2023-02-02T11:26:02.310Z,96035.84
2023-02-02T11:28:35.367Z,96263.19
2023-02-02T11:31:05.189Z,96776.84
2023-02-02T11:33:35.146Z,96890.19
2023-02-02T11:36:05.971Z,97108.66
2023-02-02T11:38:34.311Z,97452.19
2023-02-02T11:41:04.875Z,97599.44
2023-02-02T11:43:36.467Z,97707.53
2023-02-02T11:46:08.161Z,97718.59
2023-02-02T11:48:38.725Z,98061.69
2023-02-02T11:51:09.015Z,98454.44
2023-02-02T11:53:43.884Z,98658.66
2023-02-02T11:56:21.296Z,98618.31
2023-02-02T11:58:50.785Z,98640.69
2023-02-02T12:01:26.778Z,98312.78
2023-02-02T12:03:56.266Z,97964.06
2023-02-02T12:06:26.256Z,97652.84
2023-02-02T12:08:58.145Z,97383.22
2023-02-02T12:11:40.211Z,97025.53
2023-02-02T12:14:25.462Z,96658.25
2023-02-02T12:17:06.350Z,96588.38
2023-02-02T12:19:51.378Z,96484.59
2023-02-02T12:22:32.610Z,96375.97
2023-02-02T12:25:13.371Z,96314.72
2023-02-02T12:27:50.669Z,96273.13
2023-02-02T12:30:28.855Z,96226.50
2023-02-02T12:33:19.401Z,96133.75
2023-02-02T12:36:08.638Z,96074.53
2023-02-02T12:38:55.254Z,96009.03
2023-02-02T12:41:39.524Z,95950.97
2023-02-02T12:44:16.077Z,95870.28
2023-02-02T12:46:58.403Z,95794.88
2023-02-02T12:49:44.225Z,95721.28
2023-02-02T12:52:31.021Z,95591.81
2023-02-02T12:55:18.183Z,95507.53
2023-02-02T12:57:57.863Z,95424.47
2023-02-02T13:00:48.088Z,95382.97
2023-02-02T13:03:28.010Z,95320.44
2023-02-02T13:09:01.969Z,95275.72
2023-02-02T13:11:38.401Z,95260.75
2023-02-02T13:14:12.892Z,95257.16
2023-02-02T13:16:48.426Z,95226.09
2023-02-02T13:19:33.984Z,95218.44
2023-02-02T13:22:05.922Z,95174.53
2023-02-02T13:24:40.163Z,95144.97
2023-02-02T13:27:14.662Z,95106.25
2023-02-02T13:29:47.886Z,95088.53
2023-02-02T13:32:22.400Z,95056.84
2023-02-02T13:34:54.641Z,95057.34
2023-02-02T13:37:30.374Z,95048.09
2023-02-02T13:40:02.447Z,95044.69
2023-02-02T13:42:42.128Z,95012.69
2023-02-02T13:45:34.213Z,95003.56
2023-02-02T13:48:15.615Z,94967.84
2023-02-02T13:50:52.376Z,94950.31
2023-02-02T13:53:43.063Z,94941.88
2023-02-02T13:56:27.230Z,94932.78
2023-02-02T13:59:14.691Z,94875.97
2023-02-02T14:01:45.538Z,94839.28
2023-02-02T14:04:23.233Z,94809.13
2023-02-02T14:06:58.149Z,94805.56
2023-02-02T14:09:30.229Z,94812.38
2023-02-02T14:12:01.428Z,94826.63
2023-02-02T14:14:35.232Z,94784.59
2023-02-02T14:17:06.110Z,94741.63
2023-02-02T14:19:57.616Z,94707.28
2023-02-02T14:22:44.665Z,94655.22
2023-02-02T14:26:05.293Z,94620.72
2023-02-02T14:28:48.231Z,94554.28
2023-02-02T14:31:42.339Z,94505.72
2023-02-02T14:34:29.252Z,94450.97
2023-02-02T14:37:30.792Z,94432.53
2023-02-02T14:40:12.628Z,94410.53
2023-02-02T14:43:14.629Z,94362.81
2023-02-02T14:45:43.573Z,94316.69
2023-02-02T14:48:16.647Z,94269.81
2023-02-02T14:50:50.016Z,94220.34
2023-02-02T14:53:26.633Z,94175.72
2023-02-02T14:56:00.315Z,94131.28
2023-02-02T14:58:34.287Z,94066.84
2023-02-02T15:01:12.336Z,94026.00
2023-02-02T15:03:53.126Z,93974.88
2023-02-02T15:06:35.601Z,93962.47
2023-02-02T15:09:29.269Z,93954.88
2023-02-02T15:12:19.996Z,93918.88
2023-02-02T15:14:55.225Z,93908.06
2023-02-02T15:17:28.990Z,93941.50
2023-02-02T15:20:06.559Z,93892.91
2023-02-02T15:22:38.680Z,93867.75
2023-02-02T15:25:18.452Z,93831.00
2023-02-02T15:27:56.932Z,93836.16
2023-02-02T15:30:29.950Z,93826.63
2023-02-02T15:32:58.854Z,93828.06
2023-02-02T15:35:32.427Z,93835.81
2023-02-02T15:38:04.795Z,93815.50
2023-02-02T15:40:33.332Z,93805.19
2023-02-02T15:43:04.475Z,93789.06
2023-02-02T15:45:43.667Z,93782.28
2023-02-02T15:48:21.461Z,93745.44
2023-02-02T15:50:55.865Z,93718.81
2023-02-02T15:53:26.911Z,93694.00
2023-02-02T15:55:56.727Z,93704.78
2023-02-02T15:58:28.173Z,93688.03
2023-02-02T16:01:15.537Z,93642.13
2023-02-02T16:03:51.277Z,93617.00
2023-02-02T16:06:20.085Z,93581.25
2023-02-02T16:08:48.876Z,93555.19
2023-02-02T16:11:18.989Z,93551.00
2023-02-02T16:14:02.934Z,93545.19
2023-02-02T16:16:33.937Z,93549.56
2023-02-02T16:19:15.782Z,93537.81
2023-02-02T16:21:48.983Z,93515.13
2023-02-02T16:24:21.810Z,93490.81
2023-02-02T16:26:52.273Z,93481.78
2023-02-02T16:29:20.700Z,93437.75
2023-02-02T16:31:51.667Z,93409.63
2023-02-02T16:34:40.432Z,93379.53
2023-02-02T16:37:14.339Z,93281.81
2023-02-02T16:39:42.602Z,93220.13
2023-02-02T16:42:11.733Z,93166.78
2023-02-02T16:44:44.164Z,93094.59
2023-02-02T16:47:38.933Z,93149.28
2023-02-02T16:50:27.417Z,93210.00
2023-02-02T16:52:58.488Z,93229.44
2023-02-02T16:55:43.472Z,93253.53
2023-02-02T16:58:20.861Z,93238.41
2023-02-02T17:01:13.459Z,93186.88
2023-02-02T17:03:49.789Z,93091.22
2023-02-02T17:06:18.581Z,93008.59
2023-02-02T17:08:46.643Z,93035.38
2023-02-02T17:11:23.251Z,93058.00
2023-02-02T17:13:52.010Z,93043.56
2023-02-02T17:16:23.513Z,93034.94
2023-02-02T17:18:53.182Z,93071.97
2023-02-02T17:21:24.039Z,93068.63
2023-02-02T17:23:54.316Z,93064.59
2023-02-02T17:26:22.427Z,93060.59
2023-02-02T17:28:51.916Z,93090.41
2023-02-02T17:31:20.002Z,93082.09
2023-02-02T17:33:47.855Z,93087.25
2023-02-02T17:36:17.136Z,93097.78
2023-02-02T17:38:44.998Z,93092.00
2023-02-02T17:41:14.351Z,93056.25
2023-02-02T17:43:43.799Z,93022.06
2023-02-02T17:46:13.425Z,93014.34
2023-02-02T17:48:41.497Z,93014.72
2023-02-02T17:51:16.069Z,93057.03
2023-02-02T17:53:46.173Z,93060.22
2023-02-02T17:56:14.210Z,93032.00
2023-02-02T17:58:42.319Z,93007.16
2023-02-02T18:01:12.126Z,93005.38
2023-02-02T18:03:43.049Z,92995.47
2023-02-02T18:06:12.361Z,92964.66
2023-02-02T18:08:40.928Z,92978.59
2023-02-02T18:11:13.565Z,93037.78
2023-02-02T18:13:44.484Z,93075.97
2023-02-02T18:16:14.589Z,93096.19
2023-02-02T18:18:42.654Z,93086.88
2023-02-02T18:21:14.807Z,93075.34
2023-02-02T18:23:42.990Z,93051.91
2023-02-02T18:26:15.270Z,93037.16
2023-02-02T18:28:43.482Z,93056.25
2023-02-02T18:31:13.034Z,93057.03
2023-02-02T18:33:41.874Z,93052.50
2023-02-02T18:36:12.984Z,93064.25
2023-02-02T18:38:42.518Z,93051.28
2023-02-02T18:41:10.582Z,93046.75
2023-02-02T18:43:40.140Z,93036.81
2023-02-02T18:46:11.413Z,93041.16
2023-02-02T18:48:40.593Z,93028.47
2023-02-02T18:51:11.765Z,93046.75
2023-02-02T18:53:39.716Z,93051.91
2023-02-02T18:56:09.219Z,93036.81
2023-02-02T18:58:39.516Z,93048.69
2023-02-02T19:01:08.683Z,93032.63
2023-02-02T19:03:36.961Z,92990.31
2023-02-02T19:06:22.937Z,93012.56
2023-02-02T19:08:50.944Z,93055.09
2023-02-02T19:11:20.609Z,93051.91
2023-02-02T19:13:50.540Z,93011.78
2023-02-02T19:16:23.342Z,93024.28
2023-02-02T19:18:51.669Z,92985.53
2023-02-02T19:21:19.657Z,92919.16
2023-02-02T19:23:47.692Z,92890.94
2023-02-02T19:26:23.231Z,92844.91
2023-02-02T19:28:53.441Z,92821.06
2023-02-02T19:31:21.797Z,92874.09
2023-02-02T19:33:52.227Z,92878.88
2023-02-02T19:36:22.230Z,92844.91
2023-02-02T19:38:53.469Z,92890.41
2023-02-02T19:41:24.046Z,92904.69
2023-02-02T19:43:58.623Z,92847.31
2023-02-02T19:46:29.117Z,92791.72
2023-02-02T19:49:12.522Z,92723.47
2023-02-02T19:51:45.778Z,92727.81
2023-02-02T19:54:26.028Z,92744.50
2023-02-02T19:56:56.571Z,92773.47
2023-02-02T19:59:31.067Z,92803.44
2023-02-02T20:02:00.692Z,92812.56
2023-02-02T20:04:29.206Z,92797.50
2023-02-02T20:06:59.852Z,92785.78
2023-02-02T20:09:34.716Z,92771.53
2023-02-02T20:12:19.456Z,92764.97
2023-02-02T20:14:49.470Z,92704.81
2023-02-02T20:17:24.204Z,92714.34
2023-02-02T20:19:52.026Z,92736.16
2023-02-02T20:22:26.103Z,92726.22
2023-02-02T20:24:54.822Z,92706.03
2023-02-02T20:27:24.652Z,92692.94
2023-02-02T20:29:57.740Z,92698.06
2023-02-02T20:32:30.406Z,92647.94
2023-02-02T20:35:00.443Z,92626.31
2023-02-02T20:37:30.293Z,92672.13
2023-02-02T20:40:00.257Z,92700.28
2023-02-02T20:42:29.927Z,92683.00
2023-02-02T20:44:59.163Z,92643.34
2023-02-02T20:47:27.131Z,92582.50
2023-02-02T20:49:57.421Z,92530.41
2023-02-02T20:52:31.022Z,92490.75
2023-02-02T20:55:00.712Z,92473.34
2023-02-02T20:57:28.632Z,92512.16
2023-02-02T21:00:00.429Z,92517.91
2023-02-02T21:02:28.798Z,92485.25
2023-02-02T21:04:56.866Z,92471.94
2023-02-02T21:07:25.964Z,92437.69
2023-02-02T21:09:54.511Z,92396.13
2023-02-02T21:12:25.501Z,92353.03
2023-02-02T21:14:54.067Z,92317.56
2023-02-02T21:17:23.800Z,92296.81
2023-02-02T21:19:52.021Z,92313.44
2023-02-02T21:22:19.972Z,92301.56
2023-02-02T21:24:47.903Z,92359.75
2023-02-02T21:27:16.031Z,92387.84
2023-02-02T21:29:44.090Z,92385.28
2023-02-02T21:32:12.405Z,92337.22
2023-02-02T21:34:41.887Z,92298.41
2023-02-02T21:37:15.129Z,92308.28
2023-02-02T21:39:48.534Z,92279.41
2023-02-02T21:42:18.602Z,92243.22
2023-02-02T21:44:52.482Z,92204.88
2023-02-02T21:47:33.752Z,92284.53
2023-02-02T21:50:15.407Z,92342.16
2023-02-02T21:52:43.739Z,92383.69
2023-02-02T21:55:32.388Z,92384.66
2023-02-02T21:58:02.265Z,92348.25
2023-02-02T22:00:34.571Z,92281.78
2023-02-02T22:03:03.097Z,92232.34
2023-02-02T22:05:38.195Z,92190.03
2023-02-02T22:08:18.986Z,92174.22
2023-02-02T22:10:47.333Z,92206.81
2023-02-02T22:13:18.080Z,92188.25
2023-02-02T22:15:47.621Z,92165.94
2023-02-02T22:18:18.510Z,92152.88
2023-02-02T22:20:50.792Z,92134.53
2023-02-02T22:23:20.492Z,92131.34
2023-02-02T22:25:50.547Z,92117.31
2023-02-02T22:28:22.451Z,92119.72
2023-02-02T22:30:52.104Z,92094.00
2023-02-02T22:33:20.395Z,92059.44
2023-02-02T22:35:50.031Z,92042.66
2023-02-02T22:38:20.422Z,92025.28
2023-02-02T22:40:49.613Z,92032.97
2023-02-02T22:43:18.882Z,92026.88
2023-02-02T22:45:47.454Z,92002.38
2023-02-02T22:48:16.614Z,91974.31
2023-02-02T22:50:44.709Z,91960.31
2023-02-02T22:53:15.599Z,91956.78
2023-02-02T22:55:44.116Z,91974.31
2023-02-02T22:58:12.290Z,91974.94
2023-02-02T23:00:40.234Z,91984.94
2023-02-02T23:03:08.276Z,91985.97
2023-02-02T23:05:36.824Z,91967.63
2023-02-02T23:08:05.091Z,91954.59
2023-02-02T23:10:35.945Z,91942.16
2023-02-02T23:13:04.825Z,91939.59
2023-02-02T23:15:33.267Z,91914.75
2023-02-02T23:18:01.794Z,91908.03
2023-02-02T23:20:30.022Z,91895.81
2023-02-02T23:22:58.052Z,91894.97
2023-02-02T23:25:26.726Z,91883.53
2023-02-02T23:27:56.197Z,91873.69
2023-02-02T23:30:24.920Z,91848.84
2023-02-02T23:32:53.083Z,91823.22
2023-02-02T23:35:21.563Z,91815.53
2023-02-02T23:37:49.533Z,91814.72
2023-02-02T23:40:17.653Z,91796.81
2023-02-02T23:42:45.611Z,91775.91
2023-02-02T23:45:16.414Z,91776.28
2023-02-02T23:47:44.974Z,91748.91
2023-02-02T23:50:13.689Z,91737.47
2023-02-02T23:52:41.819Z,91745.16
2023-02-02T23:55:10.843Z,91730.97
2023-02-02T23:57:38.961Z,91714.41
